createdAt,value
2018-07-30T00:02:30.184Z,3.40
2018-07-30T00:05:02.620Z,2.43
2018-07-30T00:07:34.675Z,3.30
2018-07-30T00:10:07.037Z,3.17
2018-07-30T00:12:39.423Z,3.07
2018-07-30T00:15:11.696Z,4.13
2018-07-30T00:17:43.671Z,3.80
2018-07-30T00:20:15.739Z,3.60
2018-07-30T00:22:47.740Z,2.90
2018-07-30T00:25:20.075Z,3.43
2018-07-30T00:27:52.148Z,3.53
2018-07-30T00:30:24.241Z,3.93
2018-07-30T00:32:56.343Z,3.40
2018-07-30T00:35:28.534Z,3.90
2018-07-30T00:38:00.715Z,3.83
2018-07-30T00:40:32.923Z,4.37
2018-07-30T00:43:05.162Z,4.00
2018-07-30T00:45:37.003Z,3.73
2018-07-30T00:48:09.019Z,3.20
2018-07-30T00:50:40.956Z,3.83
2018-07-30T00:53:13.038Z,3.97
2018-07-30T00:55:44.927Z,3.20
2018-07-30T00:58:17.092Z,3.77
2018-07-30T01:00:49.412Z,4.07
2018-07-30T01:03:21.443Z,3.97
2018-07-30T01:05:53.502Z,3.70
2018-07-30T01:08:25.393Z,3.57
2018-07-30T01:10:57.439Z,3.77
2018-07-30T01:13:29.358Z,4.07
2018-07-30T01:16:01.377Z,3.77
2018-07-30T01:18:33.543Z,4.03
2018-07-30T01:21:05.780Z,4.50
2018-07-30T01:23:37.043Z,4.80
2018-07-30T01:26:12.891Z,4.40
2018-07-30T01:28:44.712Z,3.80
2018-07-30T01:31:16.903Z,3.77
2018-07-30T01:33:48.895Z,4.10
2018-07-30T01:36:20.912Z,4.50
2018-07-30T01:38:53.023Z,4.70
2018-07-30T01:41:25.078Z,3.53
2018-07-30T01:43:57.069Z,4.87
2018-07-30T01:46:29.063Z,4.40
2018-07-30T01:49:01.179Z,3.80
2018-07-30T01:51:33.727Z,4.50
2018-07-30T01:54:06.050Z,3.90
2018-07-30T01:56:38.111Z,4.30
2018-07-30T01:59:10.021Z,4.10
2018-07-30T02:01:42.281Z,4.83
2018-07-30T02:04:14.166Z,4.00
2018-07-30T02:06:46.767Z,4.30
2018-07-30T02:09:18.794Z,3.97
2018-07-30T02:11:50.815Z,4.60
2018-07-30T02:14:22.890Z,4.93
2018-07-30T02:16:54.154Z,4.30
2018-07-30T02:19:26.066Z,3.60
2018-07-30T02:21:58.033Z,4.53
2018-07-30T02:24:30.216Z,4.60
2018-07-30T02:27:02.508Z,4.83
2018-07-30T02:29:34.552Z,4.50
2018-07-30T02:32:06.512Z,4.77
2018-07-30T02:34:38.550Z,4.70
2018-07-30T02:37:10.624Z,4.63
2018-07-30T02:39:42.702Z,4.10
2018-07-30T02:42:14.666Z,4.67
2018-07-30T02:44:46.885Z,3.73
2018-07-30T02:47:19.082Z,4.40
2018-07-30T02:49:51.028Z,5.00
2018-07-30T02:52:22.915Z,4.77
2018-07-30T02:54:55.098Z,5.03
2018-07-30T02:57:27.143Z,4.73
2018-07-30T02:59:59.244Z,4.10
2018-07-30T03:02:31.291Z,5.30
2018-07-30T03:05:03.218Z,4.70
2018-07-30T03:07:35.208Z,4.77
2018-07-30T03:10:07.490Z,5.20
2018-07-30T03:12:39.727Z,4.47
2018-07-30T03:15:11.982Z,5.30
2018-07-30T03:17:43.975Z,5.43
2018-07-30T03:20:16.195Z,4.50
2018-07-30T03:22:48.195Z,5.20
2018-07-30T03:25:24.172Z,4.30
2018-07-30T03:27:56.439Z,5.60
2018-07-30T03:30:28.467Z,5.70
2018-07-30T03:33:00.514Z,4.80
2018-07-30T03:35:32.639Z,4.50
2018-07-30T03:38:05.127Z,5.10
2018-07-30T03:40:37.450Z,6.00
2018-07-30T03:43:09.386Z,4.77
2018-07-30T03:45:41.490Z,5.03
2018-07-30T03:48:13.732Z,4.73
2018-07-30T03:50:45.958Z,5.63
2018-07-30T03:53:18.032Z,5.80
2018-07-30T03:55:49.972Z,4.43
2018-07-30T03:58:22.072Z,5.03
2018-07-30T04:00:54.342Z,5.53
2018-07-30T04:03:26.252Z,5.90
2018-07-30T04:05:58.442Z,5.33
2018-07-30T04:08:30.512Z,6.07
2018-07-30T04:11:02.528Z,6.00
2018-07-30T04:13:34.603Z,5.40
2018-07-30T04:16:06.793Z,5.00
2018-07-30T04:18:38.773Z,5.17
2018-07-30T04:21:10.786Z,4.90
2018-07-30T04:23:42.767Z,6.30
2018-07-30T04:26:14.815Z,4.73
2018-07-30T04:28:46.751Z,5.33
2018-07-30T04:31:18.711Z,5.77
2018-07-30T04:33:50.835Z,5.90
2018-07-30T04:36:22.910Z,6.17
2018-07-30T04:38:55.127Z,5.80
2018-07-30T04:41:26.908Z,7.10
2018-07-30T04:43:59.023Z,5.93
2018-07-30T04:46:31.082Z,5.90
2018-07-30T04:49:03.211Z,5.70
2018-07-30T04:51:36.038Z,6.07
2018-07-30T04:54:08.079Z,5.90
2018-07-30T04:56:40.815Z,6.30
2018-07-30T04:59:13.016Z,6.10
2018-07-30T05:01:45.203Z,5.90
2018-07-30T05:04:17.390Z,6.10
2018-07-30T05:06:49.468Z,6.33
2018-07-30T05:09:21.468Z,5.70
2018-07-30T05:11:53.547Z,5.50
2018-07-30T05:14:25.632Z,6.33
2018-07-30T05:16:57.753Z,5.53
2018-07-30T05:19:30.080Z,6.43
2018-07-30T05:22:12.692Z,6.00
2018-07-30T05:24:47.028Z,5.67
2018-07-30T05:27:19.020Z,6.10
2018-07-30T05:29:51.105Z,5.73
2018-07-30T05:32:23.336Z,5.57
2018-07-30T05:34:55.359Z,6.10
2018-07-30T05:37:27.536Z,6.17
2018-07-30T05:39:59.573Z,6.30
2018-07-30T05:42:31.963Z,5.67
2018-07-30T05:45:03.953Z,6.07
2018-07-30T05:47:35.930Z,6.23
2018-07-30T05:50:07.651Z,6.10
2018-07-30T05:52:39.958Z,5.70
2018-07-30T05:55:12.025Z,7.43
2018-07-30T05:57:44.306Z,6.13
2018-07-30T06:00:16.427Z,7.27
2018-07-30T06:02:48.933Z,8.17
2018-07-30T06:05:20.754Z,7.90
2018-07-30T06:07:52.863Z,7.00
2018-07-30T06:10:24.959Z,10.57
2018-07-30T06:12:57.833Z,8.63
2018-07-30T06:15:29.954Z,8.20
2018-07-30T06:18:01.980Z,8.40
2018-07-30T06:20:34.163Z,10.73
2018-07-30T06:23:06.257Z,8.67
2018-07-30T06:25:38.413Z,8.33
2018-07-30T06:28:10.589Z,7.67
2018-07-30T06:30:42.758Z,7.80
2018-07-30T06:33:14.829Z,8.83
2018-07-30T06:35:48.312Z,9.57
2018-07-30T06:38:20.281Z,8.50
2018-07-30T06:40:52.259Z,9.50
2018-07-30T06:43:24.695Z,9.83
2018-07-30T06:45:57.009Z,9.23
2018-07-30T06:48:29.550Z,10.30
2018-07-30T06:51:01.467Z,8.40
2018-07-30T06:53:33.496Z,8.63
2018-07-30T06:56:05.571Z,9.80
2018-07-30T06:58:37.568Z,8.17
2018-07-30T07:01:09.730Z,7.90
2018-07-30T07:03:41.702Z,8.60
2018-07-30T07:06:13.848Z,7.23
2018-07-30T07:08:45.912Z,7.60
2018-07-30T07:11:17.955Z,6.33
2018-07-30T07:13:50.045Z,6.80
2018-07-30T07:16:22.180Z,7.50
2018-07-30T07:18:54.208Z,7.47
2018-07-30T07:21:26.512Z,6.93
2018-07-30T07:23:58.768Z,7.00
2018-07-30T07:26:30.573Z,6.30
2018-07-30T07:29:02.878Z,6.53
2018-07-30T07:31:34.834Z,5.70
2018-07-30T07:34:06.881Z,6.80
2018-07-30T07:36:38.801Z,6.10
2018-07-30T07:39:11.959Z,7.00
2018-07-30T07:41:44.222Z,5.70
2018-07-30T07:44:16.220Z,6.23
2018-07-30T07:49:50.685Z,6.00
2018-07-30T07:52:22.817Z,5.13
2018-07-30T07:54:54.895Z,5.63
2018-07-30T07:57:27.600Z,5.30
2018-07-30T08:00:00.196Z,5.10
2018-07-30T08:02:32.391Z,4.73
2018-07-30T08:05:04.818Z,5.33
2018-07-30T08:07:37.646Z,6.00
2018-07-30T08:10:10.057Z,5.53
2018-07-30T08:12:42.180Z,5.50
2018-07-30T08:15:14.375Z,5.13
2018-07-30T08:17:46.583Z,4.80
2018-07-30T08:20:18.665Z,5.33
2018-07-30T08:22:50.775Z,4.93
2018-07-30T08:25:22.903Z,5.13
2018-07-30T08:27:54.967Z,5.63
2018-07-30T08:30:27.114Z,5.70
2018-07-30T08:32:58.427Z,5.20
2018-07-30T08:35:30.467Z,5.90
2018-07-30T08:38:02.752Z,4.93
2018-07-30T08:40:35.057Z,4.77
2018-07-30T08:43:07.186Z,5.43
2018-07-30T08:45:39.270Z,6.00
2018-07-30T08:48:11.616Z,4.73
2018-07-30T08:50:43.614Z,4.83
2018-07-30T08:53:15.757Z,4.70
2018-07-30T08:55:47.909Z,4.23
2018-07-30T08:58:20.093Z,4.47
2018-07-30T09:00:52.424Z,4.33
2018-07-30T09:03:25.214Z,4.80
2018-07-30T09:05:57.198Z,5.20
2018-07-30T09:08:29.161Z,4.40
2018-07-30T09:11:01.119Z,4.57
2018-07-30T09:13:33.219Z,4.73
2018-07-30T09:16:05.524Z,3.97
2018-07-30T09:18:37.674Z,4.60
2018-07-30T09:21:09.952Z,4.30
2018-07-30T09:23:42.296Z,4.07
2018-07-30T09:26:14.476Z,3.93
2018-07-30T09:28:46.566Z,4.50
2018-07-30T09:31:18.623Z,3.80
2018-07-30T09:33:50.685Z,3.60
2018-07-30T09:36:27.476Z,3.67
2018-07-30T09:38:59.727Z,4.10
2018-07-30T09:41:31.923Z,3.70
2018-07-30T09:44:04.101Z,3.73
2018-07-30T09:46:36.302Z,7.47
2018-07-30T09:49:08.429Z,100.73
2018-07-30T09:51:40.613Z,27.27
2018-07-30T09:54:12.756Z,25.17
2018-07-30T09:56:44.961Z,24.63
2018-07-30T09:59:16.923Z,17.37
2018-07-30T10:01:48.984Z,17.67
2018-07-30T10:04:21.286Z,12.00
2018-07-30T10:06:53.568Z,8.60
2018-07-30T10:09:25.862Z,7.10
2018-07-30T10:11:58.192Z,7.37
2018-07-30T10:14:30.447Z,6.73
2018-07-30T10:17:02.557Z,6.97
2018-07-30T10:19:34.494Z,6.63
2018-07-30T10:22:06.621Z,6.20
2018-07-30T10:24:38.666Z,6.97
2018-07-30T10:27:10.756Z,6.27
2018-07-30T10:29:42.930Z,5.17
2018-07-30T10:32:15.120Z,6.20
2018-07-30T10:34:47.323Z,6.10
2018-07-30T10:37:19.597Z,5.17
2018-07-30T10:39:51.859Z,5.37
2018-07-30T10:42:23.227Z,5.83
2018-07-30T10:44:55.204Z,4.33
2018-07-30T10:47:27.164Z,4.67
2018-07-30T10:50:00.013Z,4.50
2018-07-30T10:52:32.265Z,3.93
2018-07-30T10:55:05.259Z,4.47
2018-07-30T10:57:37.192Z,3.30
2018-07-30T11:00:09.356Z,3.13
2018-07-30T11:02:41.495Z,3.03
2018-07-30T11:05:13.607Z,4.00
2018-07-30T11:07:45.743Z,2.10
2018-07-30T11:10:17.613Z,2.70
2018-07-30T11:12:49.856Z,2.37
2018-07-30T11:15:21.805Z,2.60
2018-07-30T11:17:54.237Z,2.57
2018-07-30T11:20:26.330Z,2.60
2018-07-30T11:22:58.494Z,1.80
2018-07-30T11:25:30.757Z,2.60
2018-07-30T11:28:02.776Z,1.77
2018-07-30T11:30:34.879Z,2.10
2018-07-30T11:33:07.223Z,54.30
2018-07-30T11:35:39.467Z,18.10
2018-07-30T11:38:11.495Z,32.30
2018-07-30T11:40:43.717Z,12.40
2018-07-30T11:43:15.671Z,15.17
2018-07-30T11:45:47.740Z,9.13
2018-07-30T11:48:20.115Z,10.10
2018-07-30T11:50:52.331Z,8.10
2018-07-30T11:53:24.316Z,6.70
2018-07-30T11:55:57.408Z,4.77
2018-07-30T11:58:29.530Z,5.40
2018-07-30T12:01:01.734Z,4.03
2018-07-30T12:03:33.896Z,4.53
2018-07-30T12:06:05.892Z,5.80
2018-07-30T12:08:37.943Z,5.40
2018-07-30T12:11:10.146Z,3.93
2018-07-30T12:13:42.305Z,5.23
2018-07-30T12:16:13.608Z,5.87
2018-07-30T12:18:45.716Z,4.47
2018-07-30T12:21:17.933Z,4.03
2018-07-30T12:23:50.104Z,2.73
2018-07-30T12:26:22.231Z,3.30
2018-07-30T12:28:54.400Z,2.77
2018-07-30T12:31:26.359Z,2.50
2018-07-30T12:33:58.426Z,2.70
2018-07-30T12:36:29.754Z,3.00
2018-07-30T12:39:01.704Z,2.10
2018-07-30T12:41:33.841Z,2.50
2018-07-30T12:44:05.847Z,2.77
2018-07-30T12:46:37.969Z,2.63
2018-07-30T12:49:10.283Z,3.93
2018-07-30T12:51:42.324Z,51.40
2018-07-30T12:54:14.316Z,94.40
2018-07-30T12:56:46.384Z,102.00
2018-07-30T12:59:18.727Z,212.87
2018-07-30T13:01:51.003Z,197.47
2018-07-30T13:04:23.255Z,128.93
2018-07-30T13:06:55.933Z,139.47
2018-07-30T13:09:28.150Z,94.63
2018-07-30T13:12:00.416Z,75.33
2018-07-30T13:14:32.526Z,92.40
2018-07-30T13:17:04.859Z,62.73
2018-07-30T13:19:37.139Z,42.20
2018-07-30T13:22:09.290Z,44.30
2018-07-30T13:24:41.513Z,41.37
2018-07-30T13:27:13.481Z,51.63
2018-07-30T13:29:45.415Z,46.40
2018-07-30T13:32:17.550Z,36.10
2018-07-30T13:34:49.767Z,36.63
2018-07-30T13:37:21.803Z,26.80
2018-07-30T13:39:53.808Z,22.10
2018-07-30T13:42:25.912Z,23.93
2018-07-30T13:44:58.034Z,19.03
2018-07-30T13:47:30.393Z,17.53
2018-07-30T13:50:02.380Z,24.50
2018-07-30T13:52:34.668Z,21.67
2018-07-30T13:55:07.205Z,23.77
2018-07-30T13:57:39.471Z,20.50
2018-07-30T14:00:12.362Z,16.30
2018-07-30T14:02:44.542Z,9.43
2018-07-30T14:05:17.174Z,12.07
2018-07-30T14:07:49.352Z,11.17
2018-07-30T14:10:21.371Z,9.67
2018-07-30T14:12:54.171Z,7.13
2018-07-30T14:15:26.250Z,6.33
2018-07-30T14:17:58.362Z,6.13
2018-07-30T14:20:30.402Z,5.43
2018-07-30T14:23:03.182Z,5.63
2018-07-30T14:25:35.642Z,6.37
2018-07-30T14:28:07.933Z,6.37
2018-07-30T14:30:39.993Z,5.00
2018-07-30T14:33:12.462Z,6.20
2018-07-30T14:35:44.655Z,7.03
2018-07-30T14:38:16.434Z,6.80
2018-07-30T14:40:48.704Z,5.50
2018-07-30T14:43:21.300Z,6.00
2018-07-30T14:45:53.592Z,4.73
2018-07-30T14:48:25.832Z,4.47
2018-07-30T14:50:57.941Z,4.73
2018-07-30T14:53:30.010Z,4.37
2018-07-30T14:56:02.349Z,3.77
2018-07-30T14:58:34.376Z,3.60
2018-07-30T15:01:06.576Z,3.50
2018-07-30T15:03:38.898Z,3.33
2018-07-30T15:06:11.201Z,3.03
2018-07-30T15:08:42.722Z,3.60
2018-07-30T15:11:14.775Z,2.70
2018-07-30T15:13:46.742Z,3.13
2018-07-30T15:16:18.417Z,2.27
2018-07-30T15:18:50.537Z,3.30
2018-07-30T15:21:22.990Z,2.90
2018-07-30T15:23:55.219Z,3.20
2018-07-30T15:26:27.508Z,3.03
2018-07-30T15:28:59.865Z,2.90
2018-07-30T15:31:31.915Z,2.57
2018-07-30T15:34:04.040Z,2.87
2018-07-30T15:36:35.291Z,2.63
2018-07-30T15:39:10.961Z,3.30
2018-07-30T15:41:42.995Z,2.30
2018-07-30T15:44:15.098Z,2.20
2018-07-30T15:46:50.280Z,2.47
2018-07-30T15:49:22.667Z,2.30
2018-07-30T15:51:54.952Z,2.20
2018-07-30T15:54:27.093Z,1.80
2018-07-30T15:56:59.276Z,2.33
2018-07-30T15:59:31.439Z,2.77
2018-07-30T16:02:03.702Z,2.80
2018-07-30T16:04:35.987Z,2.50
2018-07-30T16:07:08.254Z,2.10
2018-07-30T16:09:40.387Z,1.87
2018-07-30T16:12:12.569Z,2.20
2018-07-30T16:14:44.732Z,1.60
2018-07-30T16:17:17.363Z,2.10
2018-07-30T16:19:49.379Z,1.87
2018-07-30T16:22:21.480Z,1.83
2018-07-30T16:24:54.354Z,1.67
2018-07-30T16:27:26.730Z,1.90
2018-07-30T16:29:58.943Z,1.90
2018-07-30T16:32:30.980Z,1.83
2018-07-30T16:35:03.086Z,1.70
2018-07-30T16:37:35.237Z,1.47
2018-07-30T16:40:07.765Z,2.27
2018-07-30T16:42:39.942Z,1.97
2018-07-30T16:45:24.074Z,1.73
2018-07-30T16:47:58.251Z,2.13
2018-07-30T16:50:30.544Z,1.87
2018-07-30T16:53:02.685Z,1.83
2018-07-30T16:55:34.982Z,1.30
2018-07-30T16:58:07.303Z,1.73
2018-07-30T17:00:39.332Z,2.13
2018-07-30T17:03:11.546Z,1.80
2018-07-30T17:05:43.655Z,1.90
2018-07-30T17:08:15.978Z,1.57
2018-07-30T17:10:49.031Z,1.93
2018-07-30T17:13:21.152Z,1.70
2018-07-30T17:15:53.151Z,2.13
2018-07-30T17:18:25.309Z,1.93
2018-07-30T17:20:58.396Z,2.60
2018-07-30T17:23:31.020Z,2.87
2018-07-30T17:26:03.075Z,2.23
2018-07-30T17:28:35.045Z,2.33
2018-07-30T17:31:07.229Z,3.13
2018-07-30T17:33:39.401Z,3.43
2018-07-30T17:36:11.621Z,2.80
2018-07-30T17:38:43.979Z,2.50
2018-07-30T17:41:16.137Z,2.83
2018-07-30T17:43:48.326Z,2.80
2018-07-30T17:46:20.455Z,3.57
2018-07-30T17:48:52.644Z,2.80
2018-07-30T17:52:27.788Z,2.83
2018-07-30T17:54:59.883Z,2.63
2018-07-30T17:57:33.326Z,2.43
2018-07-30T18:00:06.680Z,3.03
2018-07-30T18:02:38.755Z,2.40
2018-07-30T18:05:10.839Z,3.13
2018-07-30T18:07:43.056Z,2.77
2018-07-30T18:10:15.675Z,3.30
2018-07-30T18:12:48.205Z,4.57
2018-07-30T18:15:20.379Z,3.23
2018-07-30T18:17:52.415Z,3.00
2018-07-30T18:20:24.614Z,3.33
2018-07-30T18:22:56.739Z,3.10
2018-07-30T18:25:28.943Z,3.37
2018-07-30T18:28:00.992Z,3.50
2018-07-30T18:30:33.240Z,3.20
2018-07-30T18:33:05.400Z,4.17
2018-07-30T18:35:37.597Z,3.53
2018-07-30T18:38:10.002Z,4.00
2018-07-30T18:40:42.317Z,3.43
2018-07-30T18:43:14.378Z,3.70
2018-07-30T18:45:46.398Z,4.60
2018-07-30T18:48:18.678Z,4.83
2018-07-30T18:50:50.877Z,4.57
2018-07-30T18:53:22.919Z,4.77
2018-07-30T18:55:55.127Z,4.50
2018-07-30T18:58:27.225Z,5.07
2018-07-30T19:00:59.427Z,6.53
2018-07-30T19:03:31.612Z,5.60
2018-07-30T19:06:03.859Z,5.00
2018-07-30T19:08:36.600Z,4.17
2018-07-30T19:11:08.804Z,5.10
2018-07-30T19:13:41.184Z,5.17
2018-07-30T19:16:13.389Z,6.30
2018-07-30T19:18:45.839Z,6.90
2018-07-30T19:21:19.054Z,14.73
2018-07-30T19:23:51.184Z,9.27
2018-07-30T19:26:23.391Z,7.50
2018-07-30T19:28:55.636Z,6.23
2018-07-30T19:31:27.866Z,6.70
2018-07-30T19:34:00.381Z,5.90
2018-07-30T19:36:32.413Z,5.90
2018-07-30T19:39:05.626Z,6.23
2018-07-30T19:41:36.991Z,5.70
2018-07-30T19:44:09.292Z,6.40
2018-07-30T19:46:41.319Z,6.23
2018-07-30T19:49:13.526Z,6.70
2018-07-30T19:51:46.303Z,5.93
2018-07-30T19:54:18.543Z,6.70
2018-07-30T19:56:51.174Z,6.80
2018-07-30T19:59:23.260Z,6.60
2018-07-30T20:01:56.060Z,6.43
2018-07-30T20:04:28.200Z,6.37
2018-07-30T20:07:00.395Z,6.47
2018-07-30T20:09:32.472Z,6.60
2018-07-30T20:12:04.579Z,6.50
2018-07-30T20:14:37.564Z,6.40
2018-07-30T20:17:09.744Z,6.67
2018-07-30T20:19:42.051Z,6.70
2018-07-30T20:22:14.776Z,6.13
2018-07-30T20:24:47.128Z,5.90
2018-07-30T20:27:19.286Z,5.80
2018-07-30T20:29:51.605Z,6.10
2018-07-30T20:32:23.733Z,5.93
2018-07-30T20:34:55.833Z,6.50
2018-07-30T20:37:28.097Z,6.70
2018-07-30T20:40:00.260Z,5.90
2018-07-30T20:42:32.906Z,5.37
2018-07-30T20:45:05.230Z,5.20
2018-07-30T20:47:36.396Z,5.70
2018-07-30T20:50:08.396Z,5.67
2018-07-30T20:52:40.659Z,6.03
2018-07-30T20:55:12.862Z,5.50
2018-07-30T20:57:45.005Z,5.97
2018-07-30T21:00:16.528Z,5.10
2018-07-30T21:02:49.181Z,5.20
2018-07-30T21:05:21.388Z,5.93
2018-07-30T21:07:53.547Z,5.97
2018-07-30T21:10:25.712Z,5.50
2018-07-30T21:12:57.894Z,5.67
2018-07-30T21:15:30.107Z,6.47
2018-07-30T21:18:02.331Z,5.70
2018-07-30T21:20:34.536Z,5.73
2018-07-30T21:23:06.731Z,4.90
2018-07-30T21:25:41.793Z,5.57
2018-07-30T21:28:14.071Z,6.37
2018-07-30T21:30:46.295Z,5.77
2018-07-30T21:33:18.475Z,5.20
2018-07-30T21:35:50.587Z,5.30
2018-07-30T21:38:22.702Z,7.20
2018-07-30T21:40:54.952Z,4.97
2018-07-30T21:43:27.005Z,5.00
2018-07-30T21:45:58.940Z,5.27
2018-07-30T21:48:31.147Z,5.30
2018-07-30T21:51:03.088Z,5.80
2018-07-30T21:53:35.058Z,6.67
2018-07-30T21:56:07.322Z,5.50
2018-07-30T21:58:39.194Z,4.93
2018-07-30T22:01:11.397Z,6.03
2018-07-30T22:03:43.740Z,5.73
2018-07-30T22:06:16.074Z,5.90
2018-07-30T22:08:48.084Z,5.70
2018-07-30T22:11:20.081Z,5.63
2018-07-30T22:13:51.963Z,5.43
2018-07-30T22:16:24.195Z,6.30
2018-07-30T22:18:56.426Z,5.80
2018-07-30T22:21:28.596Z,5.20
2018-07-30T22:24:00.803Z,6.47
2018-07-30T22:26:32.915Z,6.23
2018-07-30T22:29:05.129Z,5.70
2018-07-30T22:31:37.182Z,5.60
2018-07-30T22:34:10.336Z,5.90
2018-07-30T22:36:42.512Z,8.17
2018-07-30T22:39:14.827Z,7.80
2018-07-30T22:41:46.859Z,6.87
2018-07-30T22:44:18.833Z,6.10
2018-07-30T22:46:50.935Z,6.57
2018-07-30T22:49:22.986Z,8.20
2018-07-30T22:51:54.047Z,7.63
2018-07-30T22:54:26.101Z,7.80
2018-07-30T22:56:58.267Z,8.10
2018-07-30T22:59:30.325Z,8.43
2018-07-30T23:02:04.351Z,7.90
2018-07-30T23:04:36.775Z,8.57
2018-07-30T23:07:09.401Z,7.47
2018-07-30T23:09:43.314Z,7.43
2018-07-30T23:12:15.710Z,8.43
2018-07-30T23:14:47.825Z,7.23
2018-07-30T23:17:20.038Z,8.00
2018-07-30T23:19:51.933Z,8.17
2018-07-30T23:22:24.008Z,8.70
2018-07-30T23:24:56.273Z,8.07
2018-07-30T23:27:28.409Z,7.43
2018-07-30T23:30:00.554Z,7.97
2018-07-30T23:32:35.989Z,8.70
2018-07-30T23:35:08.053Z,8.93
2018-07-30T23:37:40.152Z,7.50
2018-07-30T23:40:13.134Z,7.90
2018-07-30T23:42:45.269Z,9.00
2018-07-30T23:45:17.425Z,8.50
2018-07-30T23:47:49.448Z,8.83
2018-07-30T23:50:21.692Z,8.73
2018-07-30T23:52:53.621Z,8.10
2018-07-30T23:55:26.041Z,8.50
2018-07-30T23:57:57.991Z,8.87
